Time;durP1;ratioP1;P1;durP2;ratioP2;P2;SDS_P1;SDS_P2;PMS_P1;PMS_P2;Temp;Humidity;BMP_temperature;BMP_pressure;BME280_temperature;BME280_humidity;BME280_pressure;Samples;Min_cycle;Max_cycle;Signal;HPM_P1;HPM_P2
2023/07/03 00:02:25;;;;;;;15.95;9.85;;;17.30;95.40;;;;;;4852723;29;20216;-66
2023/07/03 00:04:50;;;;;;;16.10;9.50;;;17.10;95.30;;;;;;4851459;29;20751;-66
2023/07/03 00:07:17;;;;;;;19.83;11.53;;;17.10;95.30;;;;;;4852114;29;20598;-66
2023/07/03 00:09:43;;;;;;;14.30;10.00;;;17.20;95.30;;;;;;4852775;29;20220;-66
2023/07/03 00:12:10;;;;;;;16.67;10.35;;;17.10;95.20;;;;;;4850670;29;20737;-66
2023/07/03 00:14:37;;;;;;;17.15;10.93;;;17.20;95.30;;;;;;4853929;29;20196;-66
2023/07/03 00:17:03;;;;;;;14.85;11.25;;;17.10;95.50;;;;;;4851506;29;20260;-66
2023/07/03 00:19:30;;;;;;;12.50;10.10;;;17.10;95.70;;;;;;4853747;29;20192;-67
2023/07/03 00:22:00;;;;;;;16.00;10.45;;;17.50;95.90;;;;;;4852729;29;20478;-67
2023/07/03 00:24:26;;;;;;;15.13;9.70;;;17.50;95.80;;;;;;4853131;29;20188;-67
2023/07/03 00:26:52;;;;;;;15.35;10.15;;;17.20;96.10;;;;;;4850062;29;20196;-67
2023/07/03 00:29:18;;;;;;;15.27;10.47;;;17.30;96.20;;;;;;4854121;29;20211;-67
2023/07/03 00:31:43;;;;;;;17.03;10.80;;;17.10;95.50;;;;;;4852587;29;20217;-67
2023/07/03 00:34:09;;;;;;;15.40;9.87;;;17.10;95.90;;;;;;4853110;29;20180;-67
2023/07/03 00:36:34;;;;;;;13.83;9.83;;;17.10;95.80;;;;;;4853256;29;20192;-67
2023/07/03 00:39:00;;;;;;;12.60;9.30;;;17.20;95.90;;;;;;4852829;29;20199;-67
2023/07/03 00:41:26;;;;;;;15.13;10.73;;;17.40;95.90;;;;;;4855565;29;20192;-67
2023/07/03 00:43:53;;;;;;;17.57;11.70;;;17.10;95.40;;;;;;4855754;29;20586;-67
2023/07/03 00:46:19;;;;;;;13.07;9.45;;;17.20;96.10;;;;;;4851630;29;20476;-67
2023/07/03 00:48:46;;;;;;;13.80;11.20;;;17.10;96.10;;;;;;4854667;29;20276;-67
2023/07/03 00:51:13;;;;;;;12.35;10.15;;;17.10;96.00;;;;;;4853092;29;20449;-67
2023/07/03 00:53:38;;;;;;;17.30;10.55;;;17.40;95.80;;;;;;4854196;29;20272;-67
2023/07/03 00:56:04;;;;;;;12.40;9.67;;;17.20;96.00;;;;;;4851741;29;20188;-67
2023/07/03 00:58:30;;;;;;;17.00;10.83;;;17.10;96.00;;;;;;4852508;29;20267;-67
2023/07/03 01:01:04;;;;;;;15.03;10.70;;;17.20;96.00;;;;;;4853525;29;20537;-67
2023/07/03 01:03:42;;;;;;;14.43;11.40;;;17.00;95.70;;;;;;4852215;29;20305;-67
2023/07/03 01:06:19;;;;;;;13.80;10.40;;;17.30;96.20;;;;;;4849894;29;20305;-67
2023/07/03 01:08:49;;;;;;;13.80;9.70;;;17.30;96.10;;;;;;4857736;29;20223;-67
2023/07/03 01:11:17;;;;;;;13.30;9.85;;;17.40;96.10;;;;;;4852405;29;20192;-67
2023/07/03 01:13:43;;;;;;;16.48;11.25;;;17.30;95.90;;;;;;4857177;29;20208;-67
2023/07/03 01:16:10;;;;;;;14.52;10.48;;;17.80;96.20;;;;;;4852760;29;20267;-67
2023/07/03 01:18:36;;;;;;;17.65;10.20;;;17.40;95.70;;;;;;4853601;29;20188;-67
2023/07/03 01:21:28;;;;;;;14.50;10.40;;;17.40;95.80;;;;;;4852316;29;20267;-67
2023/07/03 01:24:00;;;;;;;18.00;10.40;;;17.40;95.50;;;;;;4854502;29;20209;-67
2023/07/03 01:26:26;;;;;;;12.65;9.23;;;17.70;96.10;;;;;;4844525;29;20192;-67
2023/07/03 01:28:58;;;;;;;14.55;10.52;;;17.00;95.80;;;;;;4852050;29;20650;-67
2023/07/03 01:31:27;;;;;;;12.85;10.48;;;17.40;96.00;;;;;;4851665;29;20184;-67
2023/07/03 01:33:54;;;;;;;18.02;9.80;;;17.50;95.90;;;;;;4852165;29;20612;-67
2023/07/03 01:36:21;;;;;;;18.98;10.52;;;17.50;95.70;;;;;;4851231;29;20697;-67
2023/07/03 01:38:49;;;;;;;14.77;10.00;;;17.50;95.50;;;;;;4854808;29;20220;-67
2023/07/03 01:41:16;;;;;;;14.98;9.35;;;17.60;95.70;;;;;;4854442;29;20192;-67
2023/07/03 01:43:44;;;;;;;13.20;9.75;;;17.40;95.30;;;;;;4854874;29;20208;-67
2023/07/03 01:46:11;;;;;;;15.13;9.45;;;17.60;95.60;;;;;;4855552;29;20196;-67
2023/07/03 01:48:36;;;;;;;14.32;9.95;;;17.60;95.60;;;;;;4852749;29;20188;-67
2023/07/03 01:51:04;;;;;;;13.87;9.40;;;17.60;95.70;;;;;;4855868;29;20881;-67
2023/07/03 01:53:39;;;;;;;13.77;9.80;;;17.80;95.60;;;;;;4851935;29;20301;-67
2023/07/03 01:56:21;;;;;;;14.77;10.57;;;17.70;95.40;;;;;;4855983;29;20325;-67
2023/07/03 01:58:56;;;;;;;12.25;9.60;;;17.80;95.40;;;;;;4856302;29;20188;-67
2023/07/03 02:01:29;;;;;;;12.40;10.60;;;18.00;95.40;;;;;;4856728;29;20225;-67
2023/07/03 02:04:00;;;;;;;12.02;10.10;;;17.90;95.30;;;;;;4856357;29;20549;-67
2023/07/03 02:06:33;;;;;;;17.77;10.68;;;18.00;95.30;;;;;;4855230;29;20203;-67
2023/07/03 02:09:00;;;;;;;12.32;9.73;;;17.90;95.40;;;;;;4855826;29;20228;-67
2023/07/03 02:11:28;;;;;;;13.32;9.05;;;18.00;95.40;;;;;;4857886;29;20600;-67
2023/07/03 02:13:54;;;;;;;13.40;9.63;;;17.90;95.10;;;;;;4854616;29;20196;-67
2023/07/03 02:16:20;;;;;;;12.48;9.70;;;18.00;95.30;;;;;;4855260;29;20201;-67
2023/07/03 02:18:49;;;;;;;12.53;9.53;;;17.50;95.10;;;;;;4857143;29;20592;-67
2023/07/03 02:21:15;;;;;;;13.65;9.60;;;18.00;95.30;;;;;;4854186;29;20200;-67
2023/07/03 02:23:43;;;;;;;13.63;10.10;;;18.00;95.40;;;;;;4855547;29;20208;-67
2023/07/03 02:26:10;;;;;;;17.92;10.63;;;17.90;95.80;;;;;;4854012;29;20545;-67
2023/07/03 02:28:36;;;;;;;12.20;9.38;;;17.90;96.00;;;;;;4856749;29;20196;-67
2023/07/03 02:31:02;;;;;;;14.68;10.02;;;18.00;95.60;;;;;;4857193;29;20192;-67
2023/07/03 02:33:28;;;;;;;12.93;10.13;;;18.10;95.20;;;;;;4857139;29;20554;-67
2023/07/03 02:35:54;;;;;;;14.50;9.75;;;18.20;95.60;;;;;;4854605;29;20686;-67
2023/07/03 02:38:20;;;;;;;13.37;9.37;;;18.10;95.30;;;;;;4852687;29;20223;-67
2023/07/03 02:40:46;;;;;;;15.17;9.07;;;18.10;95.20;;;;;;4856819;29;20196;-67
2023/07/03 02:43:13;;;;;;;14.43;10.20;;;18.00;94.60;;;;;;4856935;29;20243;-68
2023/07/03 02:45:40;;;;;;;16.77;10.13;;;18.20;95.00;;;;;;4858864;29;20202;-68
2023/07/03 02:48:07;;;;;;;14.98;9.00;;;18.50;95.00;;;;;;4862169;29;20185;-68
2023/07/03 02:50:32;;;;;;;15.30;9.55;;;18.30;94.80;;;;;;4858785;29;20215;-70
2023/07/03 02:52:58;;;;;;;13.47;9.50;;;18.30;94.90;;;;;;4856319;29;20239;-70
2023/07/03 02:55:24;;;;;;;13.47;9.70;;;18.30;94.90;;;;;;4859482;29;20183;-70
2023/07/03 02:57:50;;;;;;;15.10;10.00;;;17.80;94.60;;;;;;4852376;29;20184;-70
2023/07/03 03:00:16;;;;;;;15.73;10.30;;;18.30;94.90;;;;;;4856611;29;20203;-70
2023/07/03 03:02:44;;;;;;;15.40;10.35;;;18.40;95.00;;;;;;4855222;29;20303;-70
2023/07/03 03:05:10;;;;;;;13.73;9.60;;;18.40;95.00;;;;;;4856043;29;20856;-70
2023/07/03 03:07:36;;;;;;;13.48;9.75;;;18.40;94.90;;;;;;4858182;29;20670;-70
2023/07/03 03:10:02;;;;;;;12.70;9.30;;;18.80;94.90;;;;;;4857828;29;20226;-70
2023/07/03 03:12:28;;;;;;;15.02;10.00;;;18.40;94.70;;;;;;4853734;29;20461;-67
2023/07/03 03:14:53;;;;;;;16.07;10.23;;;18.40;95.00;;;;;;4855672;29;20187;-70
2023/07/03 03:17:19;;;;;;;14.77;9.50;;;18.30;94.90;;;;;;4857007;29;20821;-70
2023/07/03 03:19:45;;;;;;;16.27;11.33;;;18.40;95.00;;;;;;4856390;29;20209;-70
2023/07/03 03:22:11;;;;;;;13.35;10.20;;;18.50;94.70;;;;;;4856823;29;20219;-70
2023/07/03 03:24:36;;;;;;;13.33;9.33;;;18.50;94.40;;;;;;4860817;29;20317;-69
2023/07/03 03:27:06;;;;;;;15.50;9.77;;;18.50;95.50;;;;;;4854848;29;20718;-71
2023/07/03 03:29:32;;;;;;;13.10;9.20;;;18.50;95.50;;;;;;4859585;29;20979;-69
2023/07/03 03:31:58;;;;;;;14.35;9.98;;;18.20;94.80;;;;;;4853981;29;20236;-69
2023/07/03 03:34:24;;;;;;;12.70;9.57;;;18.60;94.50;;;;;;4854830;29;20276;-69
2023/07/03 03:36:49;;;;;;;12.77;9.17;;;18.60;94.20;;;;;;4854428;29;20700;-67
2023/07/03 03:39:15;;;;;;;12.83;8.90;;;18.70;94.10;;;;;;4849938;29;20188;-66
2023/07/03 03:41:41;;;;;;;13.60;9.30;;;18.80;93.50;;;;;;4851223;29;20632;-69
2023/07/03 03:44:06;;;;;;;12.30;9.47;;;18.80;93.80;;;;;;4855042;29;20200;-69
2023/07/03 03:46:32;;;;;;;11.30;8.77;;;18.90;93.60;;;;;;4853956;29;20226;-69
2023/07/03 03:48:57;;;;;;;14.60;9.63;;;18.90;93.50;;;;;;4854290;29;20285;-68
2023/07/03 03:51:23;;;;;;;13.20;9.17;;;18.90;93.60;;;;;;4851624;29;20199;-69
2023/07/03 03:53:49;;;;;;;14.57;9.40;;;19.00;93.10;;;;;;4854145;29;20351;-69
2023/07/03 03:56:14;;;;;;;13.63;9.53;;;19.30;93.20;;;;;;4851680;29;20654;-69
2023/07/03 03:58:40;;;;;;;10.40;8.60;;;19.10;92.80;;;;;;4852925;29;20215;-69
2023/07/03 04:01:06;;;;;;;13.50;9.00;;;19.10;91.90;;;;;;4852160;29;20188;-69
2023/07/03 04:03:31;;;;;;;13.40;8.30;;;19.10;91.30;;;;;;4856278;29;20362;-69
2023/07/03 04:05:57;;;;;;;11.83;7.80;;;19.20;91.70;;;;;;4852250;29;20188;-69
2023/07/03 04:08:23;;;;;;;11.97;8.90;;;19.20;91.40;;;;;;4852139;29;20200;-68
2023/07/03 04:10:48;;;;;;;10.37;8.27;;;19.20;91.20;;;;;;4855477;29;20212;-69
2023/07/03 04:13:14;;;;;;;16.43;9.17;;;19.30;91.20;;;;;;4851495;29;20295;-69
2023/07/03 04:15:58;;;;;;;14.10;9.10;;;19.30;91.00;;;;;;4853371;29;20184;-69
2023/07/03 04:18:25;;;;;;;11.60;8.10;;;19.30;91.00;;;;;;4855280;29;20192;-69
2023/07/03 04:20:51;;;;;;;15.63;9.70;;;19.30;91.00;;;;;;4851748;29;20240;-69
2023/07/03 04:23:17;;;;;;;12.68;9.13;;;19.40;90.80;;;;;;4853196;29;20227;-69
2023/07/03 04:25:43;;;;;;;12.40;8.65;;;19.30;90.90;;;;;;4855191;29;20181;-69
2023/07/03 04:28:10;;;;;;;10.03;8.23;;;19.30;91.10;;;;;;4857361;29;20259;-68
2023/07/03 04:30:36;;;;;;;12.10;8.70;;;19.40;91.20;;;;;;4853845;29;20485;-69
2023/07/03 04:33:02;;;;;;;13.67;9.20;;;19.30;91.10;;;;;;4852503;29;20208;-68
2023/07/03 04:35:27;;;;;;;12.32;8.82;;;19.40;91.00;;;;;;4855240;29;20193;-70
2023/07/03 04:37:53;;;;;;;13.60;9.27;;;19.40;91.00;;;;;;4849576;29;21536;-69
2023/07/03 04:40:19;;;;;;;13.20;8.50;;;19.40;91.00;;;;;;4852680;29;20296;-69
2023/07/03 04:42:45;;;;;;;10.17;8.43;;;19.50;91.00;;;;;;4848830;29;20268;-68
2023/07/03 04:45:13;;;;;;;13.77;9.80;;;19.50;90.80;;;;;;4849590;29;20332;-69
2023/07/03 04:47:39;;;;;;;13.93;9.77;;;19.50;90.80;;;;;;4849344;29;20472;-69
2023/07/03 04:50:07;;;;;;;16.23;9.30;;;19.60;90.80;;;;;;4848304;29;20234;-69
2023/07/03 04:52:36;;;;;;;11.20;8.60;;;19.60;90.70;;;;;;4854442;29;20690;-69
2023/07/03 04:55:02;;;;;;;11.52;8.32;;;19.60;90.70;;;;;;4853827;29;20206;-69
2023/07/03 04:57:28;;;;;;;12.75;9.60;;;19.60;90.50;;;;;;4851271;29;21661;-69
2023/07/03 04:59:55;;;;;;;12.83;8.70;;;19.60;90.60;;;;;;4851490;29;20199;-69
2023/07/03 05:02:21;;;;;;;14.25;9.57;;;19.70;90.40;;;;;;4852990;29;20275;-69
2023/07/03 05:04:47;;;;;;;15.25;8.57;;;19.80;90.50;;;;;;4854643;29;20282;-69
2023/07/03 05:07:13;;;;;;;13.65;8.45;;;19.70;90.40;;;;;;4852048;29;20250;-69
2023/07/03 05:09:40;;;;;;;13.30;8.40;;;19.80;90.30;;;;;;4855027;29;20922;-69
2023/07/03 05:12:06;;;;;;;10.85;8.50;;;19.80;90.40;;;;;;4858286;29;20203;-69
2023/07/03 05:14:32;;;;;;;11.23;8.52;;;19.80;90.20;;;;;;4857895;29;20184;-69
2023/07/03 05:16:57;;;;;;;12.23;8.63;;;19.90;90.30;;;;;;4857273;29;20203;-69
2023/07/03 05:19:23;;;;;;;10.23;8.37;;;19.50;90.00;;;;;;4858742;29;20204;-69
2023/07/03 05:21:48;;;;;;;13.10;8.93;;;20.00;90.20;;;;;;4858529;29;20222;-69
2023/07/03 05:24:14;;;;;;;14.10;8.80;;;20.00;90.00;;;;;;4857043;29;20194;-69
2023/07/03 05:26:40;;;;;;;12.90;8.80;;;20.10;90.00;;;;;;4858193;29;20566;-68
2023/07/03 05:29:05;;;;;;;10.47;7.43;;;20.50;90.30;;;;;;4856245;29;20215;-67
2023/07/03 05:31:31;;;;;;;12.33;9.30;;;20.40;88.80;;;;;;4859556;29;21450;-69
2023/07/03 05:33:57;;;;;;;11.70;8.37;;;20.40;89.60;;;;;;4856228;29;20973;-67
2023/07/03 05:36:22;;;;;;;9.73;7.63;;;20.50;89.20;;;;;;4855365;29;20200;-67
2023/07/03 05:38:48;;;;;;;11.67;8.40;;;20.40;89.70;;;;;;4856626;29;20196;-68
2023/07/03 05:41:15;;;;;;;11.80;8.30;;;20.50;89.50;;;;;;4856575;29;20710;-67
2023/07/03 05:43:40;;;;;;;10.30;8.30;;;20.40;88.90;;;;;;4857325;29;20634;-67
2023/07/03 05:46:06;;;;;;;9.53;8.20;;;20.60;88.90;;;;;;4858509;29;20220;-67
2023/07/03 05:48:31;;;;;;;11.17;7.83;;;20.60;89.10;;;;;;4856033;29;20196;-68
2023/07/03 05:50:57;;;;;;;14.10;8.10;;;20.70;88.50;;;;;;4855083;29;20246;-67
2023/07/03 05:53:23;;;;;;;11.10;7.00;;;20.80;88.50;;;;;;4856826;29;20227;-67
2023/07/03 05:55:56;;;;;;;12.43;8.33;;;20.80;88.40;;;;;;4857325;29;20192;-67
2023/07/03 05:58:22;;;;;;;14.43;8.90;;;20.90;88.30;;;;;;4855606;29;20216;-67
2023/07/03 06:00:48;;;;;;;12.70;8.90;;;21.30;88.50;;;;;;4858126;29;20189;-67
2023/07/03 06:03:14;;;;;;;11.73;8.60;;;21.20;88.00;;;;;;4857999;29;20216;-67
2023/07/03 06:05:40;;;;;;;14.77;8.93;;;21.30;87.70;;;;;;4856996;29;20199;-67
2023/07/03 06:08:05;;;;;;;12.10;7.30;;;21.40;87.30;;;;;;4855144;29;20312;-67
2023/07/03 06:10:31;;;;;;;11.23;8.07;;;21.70;86.50;;;;;;4858076;29;20251;-67
2023/07/03 06:12:56;;;;;;;9.33;7.53;;;21.80;86.20;;;;;;4855756;29;20242;-67
2023/07/03 06:15:22;;;;;;;14.23;8.57;;;21.80;85.00;;;;;;4858178;29;20196;-67
2023/07/03 06:17:48;;;;;;;9.33;7.30;;;21.80;85.40;;;;;;4856829;29;20624;-67
2023/07/03 06:20:13;;;;;;;10.70;7.77;;;21.90;84.80;;;;;;4853137;29;20192;-67
2023/07/03 06:22:41;;;;;;;10.10;8.30;;;22.00;84.20;;;;;;4856550;29;20211;-67
2023/07/03 06:25:07;;;;;;;14.68;8.20;;;22.00;84.10;;;;;;4856902;29;20448;-67
2023/07/03 06:27:33;;;;;;;10.40;7.40;;;22.10;82.90;;;;;;4853440;29;20689;-67
2023/07/03 06:29:58;;;;;;;10.57;7.87;;;22.20;83.40;;;;;;4855621;29;20231;-67
2023/07/03 06:32:24;;;;;;;11.80;7.87;;;22.20;83.00;;;;;;4855280;29;20239;-67
2023/07/03 06:34:50;;;;;;;10.27;7.73;;;22.30;82.80;;;;;;4857661;29;20196;-67
2023/07/03 06:37:15;;;;;;;7.87;6.40;;;22.30;81.80;;;;;;4855124;29;20192;-67
2023/07/03 06:39:41;;;;;;;9.03;7.37;;;22.30;82.00;;;;;;4855032;29;20201;-67
2023/07/03 06:42:09;;;;;;;11.03;7.80;;;22.10;82.80;;;;;;4850323;29;20223;-67
2023/07/03 06:44:36;;;;;;;12.25;7.38;;;22.00;83.50;;;;;;4855796;29;20291;-67
2023/07/03 06:47:02;;;;;;;10.88;7.55;;;22.10;82.80;;;;;;4855612;29;20267;-68
2023/07/03 06:49:29;;;;;;;9.80;7.23;;;22.20;82.90;;;;;;4854018;29;20211;-67
2023/07/03 06:51:57;;;;;;;10.60;6.88;;;22.10;81.80;;;;;;4855626;29;20556;-67
2023/07/03 06:54:23;;;;;;;9.82;7.07;;;22.00;82.00;;;;;;4855326;29;20552;-67
2023/07/03 06:56:48;;;;;;;12.10;7.82;;;22.00;82.90;;;;;;4852311;29;20267;-67
2023/07/03 06:59:14;;;;;;;13.20;8.37;;;22.10;82.30;;;;;;4853814;29;20284;-67
2023/07/03 07:01:40;;;;;;;10.03;7.80;;;22.20;81.70;;;;;;4855320;29;20548;-67
2023/07/03 07:04:06;;;;;;;10.75;6.40;;;22.20;82.40;;;;;;4856000;29;20283;-68
2023/07/03 07:06:31;;;;;;;11.73;7.37;;;22.30;81.30;;;;;;4853791;29;20276;-67
2023/07/03 07:08:59;;;;;;;11.50;7.30;;;22.50;81.30;;;;;;4855913;29;20207;-68
2023/07/03 07:11:32;;;;;;;17.42;7.57;;;22.80;81.10;;;;;;4851686;29;20758;-67
2023/07/03 07:13:59;;;;;;;9.47;7.63;;;22.50;79.30;;;;;;4856760;29;20181;-68
2023/07/03 07:16:30;;;;;;;9.07;7.90;;;22.50;79.30;;;;;;4855377;29;20516;-67
2023/07/03 07:19:00;;;;;;;9.50;7.50;;;23.40;79.90;;;;;;4856494;29;20188;-69
2023/07/03 07:21:26;;;;;;;11.43;7.33;;;22.80;78.70;;;;;;4854776;29;20461;-68
2023/07/03 07:23:54;;;;;;;10.73;8.00;;;22.90;77.90;;;;;;4859051;29;20464;-68
2023/07/03 07:26:22;;;;;;;10.23;7.77;;;22.90;77.90;;;;;;4853413;29;20450;-68
2023/07/03 07:28:47;;;;;;;9.50;7.77;;;23.00;77.80;;;;;;4855140;29;20449;-68
2023/07/03 07:31:21;;;;;;;11.57;7.10;;;23.20;77.50;;;;;;4855569;29;20456;-68
2023/07/03 07:33:46;;;;;;;10.70;6.83;;;23.30;77.00;;;;;;4853678;29;20212;-67
2023/07/03 07:36:14;;;;;;;9.70;7.30;;;23.10;77.00;;;;;;4866871;29;21032;-67
2023/07/03 07:38:40;;;;;;;11.30;7.85;;;22.90;77.60;;;;;;4853251;29;20580;-67
2023/07/03 07:41:06;;;;;;;11.03;7.93;;;22.70;78.40;;;;;;4853749;29;20193;-67
2023/07/03 07:43:31;;;;;;;10.77;7.27;;;22.50;79.10;;;;;;4850661;29;20503;-67
2023/07/03 07:45:57;;;;;;;13.50;8.30;;;22.30;80.10;;;;;;4854839;29;20788;-68
2023/07/03 07:48:23;;;;;;;9.27;7.80;;;22.30;80.70;;;;;;4853398;29;20196;-68
2023/07/03 07:50:49;;;;;;;11.83;8.10;;;22.20;81.40;;;;;;4852584;29;20575;-67
2023/07/03 07:53:15;;;;;;;12.95;9.32;;;22.00;82.30;;;;;;4854491;29;20579;-67
2023/07/03 07:55:41;;;;;;;10.50;7.50;;;21.90;82.70;;;;;;4853564;29;20217;-67
2023/07/03 07:58:07;;;;;;;11.40;8.10;;;21.90;83.00;;;;;;4851415;29;20556;-68
2023/07/03 08:00:33;;;;;;;10.47;7.80;;;21.80;83.30;;;;;;4855209;29;20448;-67
2023/07/03 08:02:58;;;;;;;11.27;8.43;;;21.70;83.80;;;;;;4856644;29;20516;-68
2023/07/03 08:05:24;;;;;;;9.87;7.50;;;21.60;84.30;;;;;;4853851;29;20291;-68
2023/07/03 08:07:49;;;;;;;12.67;8.03;;;21.80;84.80;;;;;;4853084;29;20202;-68
2023/07/03 08:10:15;;;;;;;13.20;8.27;;;21.80;83.40;;;;;;4855113;29;20216;-68
2023/07/03 08:12:41;;;;;;;17.90;8.90;;;22.20;83.50;;;;;;4851476;29;20743;-68
2023/07/03 08:15:07;;;;;;;9.77;7.43;;;22.50;82.10;;;;;;4855019;29;20269;-68
2023/07/03 08:17:33;;;;;;;9.40;7.13;;;22.90;80.90;;;;;;4854091;29;20481;-67
2023/07/03 08:19:59;;;;;;;11.10;7.90;;;23.20;79.00;;;;;;4854677;29;20487;-67
2023/07/03 08:22:24;;;;;;;8.40;7.00;;;23.50;77.80;;;;;;4855055;29;20311;-67
2023/07/03 08:24:50;;;;;;;9.90;7.33;;;23.60;77.70;;;;;;4853930;29;20193;-67
2023/07/03 08:27:16;;;;;;;12.03;7.10;;;23.80;77.30;;;;;;4849961;29;20235;-67
2023/07/03 08:29:41;;;;;;;13.07;7.67;;;23.80;76.80;;;;;;4856817;29;20647;-67
2023/07/03 08:32:10;;;;;;;10.57;7.93;;;23.80;76.30;;;;;;4856108;29;20222;-67
2023/07/03 08:34:36;;;;;;;11.13;8.37;;;23.90;76.00;;;;;;4853351;29;20196;-67
2023/07/03 08:37:02;;;;;;;9.10;7.30;;;23.70;76.70;;;;;;4854149;29;20487;-67
2023/07/03 08:39:28;;;;;;;11.10;7.37;;;23.70;78.50;;;;;;4851816;29;20453;-68
2023/07/03 08:42:07;;;;;;;12.87;8.23;;;24.50;76.20;;;;;;4851132;29;20473;-68
2023/07/03 08:44:33;;;;;;;16.40;8.50;;;24.90;74.00;;;;;;4854901;29;20441;-67
2023/07/03 08:47:03;;;;;;;9.37;7.60;;;24.30;74.30;;;;;;4853872;29;20500;-68
2023/07/03 08:49:31;;;;;;;14.40;7.70;;;24.30;75.70;;;;;;4853008;29;20223;-67
2023/07/03 08:51:59;;;;;;;11.57;7.63;;;24.80;75.50;;;;;;4856748;29;20559;-67
2023/07/03 08:54:32;;;;;;;15.67;8.40;;;26.90;70.50;;;;;;4854076;29;20481;-68
2023/07/03 08:57:00;;;;;;;12.70;8.40;;;28.40;65.00;;;;;;4851799;29;20445;-68
2023/07/03 08:59:26;;;;;;;11.60;8.10;;;28.20;63.90;;;;;;4852870;29;20496;-68
2023/07/03 09:02:07;;;;;;;8.80;7.87;;;27.80;63.50;;;;;;4854793;29;20476;-68
2023/07/03 09:04:54;;;;;;;9.93;8.43;;;26.60;66.10;;;;;;4856269;29;20700;-68
2023/07/03 09:07:30;;;;;;;14.47;9.20;;;25.60;70.40;;;;;;4854115;29;20458;-67
2023/07/03 09:10:17;;;;;;;12.53;8.73;;;25.30;71.10;;;;;;4854746;29;20482;-68
2023/07/03 09:13:04;;;;;;;11.53;8.57;;;24.80;72.50;;;;;;4852413;29;20495;-68
2023/07/03 09:15:41;;;;;;;12.03;7.93;;;24.30;73.40;;;;;;4852054;29;20443;-68
2023/07/03 09:18:13;;;;;;;10.50;8.50;;;23.90;75.10;;;;;;4852712;29;21103;-68
2023/07/03 09:20:41;;;;;;;10.77;7.77;;;26.40;72.20;;;;;;4852622;29;20509;-68
2023/07/03 09:23:27;;;;;;;11.20;8.87;;;28.60;64.20;;;;;;4852925;29;21023;-68
2023/07/03 09:26:01;;;;;;;9.30;8.00;;;29.40;58.80;;;;;;4853481;29;20561;-68
2023/07/03 09:28:28;;;;;;;10.47;7.63;;;28.90;59.50;;;;;;4850835;29;21002;-68
2023/07/03 09:30:54;;;;;;;14.97;10.17;;;28.60;59.50;;;;;;4853822;29;20460;-68
2023/07/03 09:33:20;;;;;;;9.47;8.00;;;27.80;59.90;;;;;;4853634;29;20578;-68
2023/07/03 09:35:47;;;;;;;8.93;7.70;;;27.30;60.00;;;;;;4852905;29;20569;-68
2023/07/03 09:38:20;;;;;;;8.77;6.90;;;26.80;61.40;;;;;;4852593;29;20196;-68
2023/07/03 09:40:49;;;;;;;11.53;9.47;;;27.40;62.30;;;;;;4852774;29;20527;-68
2023/07/03 09:43:17;;;;;;;11.23;7.70;;;28.20;58.70;;;;;;4853327;29;20473;-67
2023/07/03 09:45:44;;;;;;;9.63;7.17;;;29.40;57.00;;;;;;4855481;29;20825;-68
2023/07/03 09:48:24;;;;;;;8.93;6.73;;;30.10;53.70;;;;;;4853053;29;20469;-68
2023/07/03 09:50:51;;;;;;;9.80;7.37;;;31.40;51.70;;;;;;4854138;29;20955;-68
2023/07/03 09:53:20;;;;;;;9.03;6.50;;;32.20;49.10;;;;;;4855282;29;20478;-68
2023/07/03 09:55:57;;;;;;;7.33;6.63;;;32.60;48.50;;;;;;4853386;29;20543;-68
2023/07/03 09:58:26;;;;;;;8.60;6.83;;;31.80;48.00;;;;;;4854170;29;20466;-68
2023/07/03 10:00:55;;;;;;;10.33;6.73;;;30.60;49.50;;;;;;4856657;29;22071;-68
2023/07/03 10:03:31;;;;;;;8.03;7.23;;;29.40;50.80;;;;;;4859310;29;20500;-68
2023/07/03 10:06:10;;;;;;;8.37;6.93;;;28.80;52.00;;;;;;4857443;29;20442;-68
2023/07/03 10:08:44;;;;;;;11.43;6.60;;;28.40;52.90;;;;;;4858036;29;20448;-68
2023/07/03 10:11:11;;;;;;;8.30;6.67;;;28.00;52.90;;;;;;4853681;29;20460;-68
2023/07/03 10:13:44;;;;;;;9.00;6.20;;;27.40;53.30;;;;;;4858676;29;20499;-68
2023/07/03 10:16:12;;;;;;;8.60;6.10;;;27.00;54.10;;;;;;4855900;29;21197;-68
2023/07/03 10:18:44;;;;;;;7.57;6.10;;;27.80;53.40;;;;;;4857564;29;20452;-68
2023/07/03 10:21:12;;;;;;;7.07;6.37;;;28.70;53.00;;;;;;4857080;29;20485;-68
2023/07/03 10:23:41;;;;;;;7.40;6.27;;;28.50;51.80;;;;;;4856915;29;20468;-68
2023/07/03 10:26:29;;;;;;;9.07;6.07;;;28.30;51.70;;;;;;4855947;29;20456;-67
2023/07/03 10:29:05;;;;;;;8.00;5.80;;;27.50;52.30;;;;;;4856469;29;21006;-68
2023/07/03 10:31:51;;;;;;;8.90;6.70;;;24.60;51.80;;;;;;4856989;29;20489;-67
2023/07/03 10:34:22;;;;;;;9.40;6.30;;;26.50;53.50;;;;;;4854793;29;20445;-68
2023/07/03 10:36:53;;;;;;;7.00;5.00;;;26.40;54.60;;;;;;4856092;29;20445;-68
2023/07/03 10:39:27;;;;;;;7.23;5.40;;;28.20;53.70;;;;;;4854718;29;20437;-68
2023/07/03 10:42:00;;;;;;;5.47;4.97;;;28.80;50.00;;;;;;4851367;29;20484;-68
2023/07/03 10:44:29;;;;;;;7.03;5.60;;;28.30;50.10;;;;;;4855339;29;20524;-69
2023/07/03 10:47:16;;;;;;;7.03;5.80;;;27.70;51.00;;;;;;4855269;29;20941;-68
2023/07/03 10:49:42;;;;;;;8.37;4.63;;;27.60;50.90;;;;;;4854997;29;20540;-68
2023/07/03 10:52:21;;;;;;;5.57;4.37;;;29.00;49.00;;;;;;4855305;29;20467;-68
2023/07/03 10:55:05;;;;;;;7.20;3.90;;;29.70;47.10;;;;;;4855588;29;20191;-68
2023/07/03 10:57:46;;;;;;;4.67;4.23;;;30.80;44.90;;;;;;4868476;29;20979;-68
2023/07/03 11:00:24;;;;;;;4.60;4.20;;;31.60;43.50;;;;;;4853752;29;20449;-68
2023/07/03 11:03:07;;;;;;;5.40;4.67;;;30.90;43.60;;;;;;4856443;29;20461;-68
2023/07/03 11:05:43;;;;;;;4.27;3.73;;;30.30;45.00;;;;;;4856155;29;20528;-68
2023/07/03 11:08:37;;;;;;;5.40;3.53;;;29.40;46.70;;;;;;4854250;29;20570;-67
2023/07/03 11:11:31;;;;;;;5.93;5.07;;;28.70;48.60;;;;;;4868656;29;20843;-69
2023/07/03 11:14:06;;;;;;;5.10;4.50;;;28.00;50.20;;;;;;4870112;29;20449;-68
2023/07/03 11:17:01;;;;;;;5.97;4.27;;;27.50;50.70;;;;;;4852622;29;20535;-67
2023/07/03 11:19:43;;;;;;;6.10;3.80;;;28.80;48.80;;;;;;4852105;29;20556;-68
2023/07/03 11:22:17;;;;;;;4.07;3.63;;;29.30;46.90;;;;;;4854573;29;21056;-69
2023/07/03 11:24:55;;;;;;;5.10;4.20;;;28.90;47.40;;;;;;4855793;29;20449;-68
2023/07/03 11:27:37;;;;;;;5.80;3.60;;;28.30;49.00;;;;;;4852667;29;20452;-68
2023/07/03 11:30:04;;;;;;;4.77;4.07;;;27.40;49.90;;;;;;4854596;29;21084;-67
2023/07/03 11:32:33;;;;;;;4.60;4.13;;;26.60;51.60;;;;;;4855937;29;20491;-68
2023/07/03 11:35:00;;;;;;;6.00;5.00;;;26.30;52.40;;;;;;4855239;29;20439;-68
2023/07/03 11:37:45;;;;;;;9.47;4.90;;;26.20;53.10;;;;;;4853272;29;20450;-68
2023/07/03 11:40:35;;;;;;;7.77;4.80;;;25.90;53.90;;;;;;4854146;29;20534;-67
2023/07/03 11:43:23;;;;;;;5.53;4.03;;;26.00;54.20;;;;;;4853421;29;20555;-68
2023/07/03 11:45:58;;;;;;;6.27;4.27;;;26.60;53.30;;;;;;4855216;29;20493;-68
2023/07/03 11:48:38;;;;;;;7.27;4.90;;;27.10;52.30;;;;;;4855722;29;20482;-68
2023/07/03 11:51:07;;;;;;;6.37;4.57;;;27.10;51.60;;;;;;4853528;29;20535;-68
2023/07/03 11:53:43;;;;;;;6.07;5.00;;;27.00;52.30;;;;;;4855786;29;20553;-68
2023/07/03 11:56:32;;;;;;;5.53;5.00;;;27.30;52.10;;;;;;4852656;29;20460;-68
2023/07/03 11:59:11;;;;;;;6.23;4.60;;;27.20;52.60;;;;;;4855165;29;20468;-69
2023/07/03 12:01:37;;;;;;;5.97;4.33;;;26.70;52.90;;;;;;4853321;29;20448;-69
2023/07/03 12:04:05;;;;;;;6.90;5.17;;;26.70;53.40;;;;;;4854377;29;21070;-68
2023/07/03 12:06:40;;;;;;;7.07;5.50;;;26.90;54.10;;;;;;4852482;29;20732;-68
2023/07/03 12:09:32;;;;;;;12.13;5.87;;;27.00;55.30;;;;;;4853505;29;20475;-68
2023/07/03 12:12:02;;;;;;;8.07;5.60;;;26.60;57.00;;;;;;4847212;29;20612;-68
2023/07/03 12:14:44;;;;;;;8.07;5.10;;;26.30;57.70;;;;;;4854132;29;20492;-68
2023/07/03 12:17:39;;;;;;;8.70;5.50;;;26.20;58.10;;;;;;4852642;29;20448;-68
2023/07/03 12:20:07;;;;;;;9.20;5.40;;;25.90;58.90;;;;;;4840804;29;20455;-68
2023/07/03 12:22:46;;;;;;;7.30;5.83;;;25.70;59.40;;;;;;4854646;29;20522;-68
2023/07/03 12:25:25;;;;;;;6.40;5.80;;;25.40;60.20;;;;;;4855149;29;20471;-68
2023/07/03 12:27:52;;;;;;;10.67;5.23;;;25.60;60.20;;;;;;4851211;29;20539;-68
2023/07/03 12:30:27;;;;;;;8.07;5.80;;;25.60;58.60;;;;;;4856568;29;20477;-68
2023/07/03 12:32:54;;;;;;;7.50;5.70;;;25.60;58.80;;;;;;4856016;29;21014;-68
2023/07/03 12:35:23;;;;;;;6.33;4.50;;;25.60;59.40;;;;;;4853921;29;20502;-68
2023/07/03 12:38:00;;;;;;;6.90;5.70;;;25.30;59.40;;;;;;4855169;29;20469;-68
2023/07/03 12:40:26;;;;;;;6.67;4.60;;;25.30;59.70;;;;;;4854367;29;20540;-68
2023/07/03 12:42:54;;;;;;;5.73;4.03;;;25.50;59.30;;;;;;4853292;29;20558;-68
2023/07/03 12:45:23;;;;;;;5.13;3.97;;;25.60;58.00;;;;;;4855427;29;21030;-68
2023/07/03 12:48:02;;;;;;;6.77;6.07;;;25.60;58.10;;;;;;4854267;29;21034;-68
2023/07/03 12:50:27;;;;;;;5.87;3.63;;;25.40;58.50;;;;;;4865663;29;20994;-68